Time;durP1;ratioP1;P1;durP2;ratioP2;P2;SDS_P1;SDS_P2;PMS_P1;PMS_P2;Temp;Humidity;BMP_temperature;BMP_pressure;BME280_temperature;BME280_humidity;BME280_pressure;Samples;Min_cycle;Max_cycle;Signal;HPM_P1;HPM_P2
2023/01/16 00:01:01;;;;;;;6.13;2.47;;;;;;;9.65;nan;102695.69;4945835;29;20439;-89
2023/01/16 00:03:38;;;;;;;11.43;2.40;;;;;;;9.61;nan;102683.34;4926902;29;20538;-89
2023/01/16 00:06:07;;;;;;;9.10;2.40;;;;;;;9.53;nan;102685.03;4946829;29;20455;-87
2023/01/16 00:08:35;;;;;;;7.37;2.10;;;;;;;9.43;nan;102671.34;4923245;29;20475;-88
2023/01/16 00:11:06;;;;;;;11.10;2.00;;;;;;;9.42;nan;102687.88;4910229;29;20452;-89
2023/01/16 00:13:39;;;;;;;7.57;2.30;;;;;;;9.31;nan;102677.91;4951485;29;20439;-89
2023/01/16 00:16:07;;;;;;;18.77;6.97;;;;;;;9.23;nan;102673.16;4940127;29;20450;-87
2023/01/16 00:18:36;;;;;;;96.70;46.83;;;;;;;9.19;nan;102665.38;4924009;29;20471;-87
2023/01/16 00:21:05;;;;;;;42.03;19.63;;;;;;;9.10;nan;102667.06;4924764;29;20451;-87
2023/01/16 00:23:37;;;;;;;27.17;13.90;;;;;;;9.02;nan;102658.72;4922329;29;20503;-87
2023/01/16 00:26:08;;;;;;;18.10;9.77;;;;;;;9.02;nan;102663.31;4939845;29;20474;-86
2023/01/16 00:28:38;;;;;;;18.03;3.97;;;;;;;8.94;nan;102661.25;4939348;29;20462;-87
2023/01/16 00:31:15;;;;;;;26.73;10.47;;;;;;;8.92;nan;102666.84;4930207;29;20582;-90
2023/01/16 00:33:46;;;;;;;32.10;15.13;;;;;;;8.81;nan;102661.47;4940752;29;20459;-88
2023/01/16 00:36:17;;;;;;;23.47;10.03;;;;;;;8.89;nan;102666.22;4931763;29;20455;-88
2023/01/16 00:38:48;;;;;;;21.80;8.00;;;;;;;8.84;nan;102676.72;4939276;29;20484;-88
2023/01/16 00:41:20;;;;;;;25.97;14.20;;;;;;;8.82;nan;102679.56;4939275;29;20444;-88
2023/01/16 00:43:58;;;;;;;18.50;7.20;;;;;;;8.75;nan;102672.06;4927271;29;20523;-89
2023/01/16 00:46:29;;;;;;;10.57;3.40;;;;;;;8.76;nan;102674.66;4921105;29;20444;-89
2023/01/16 00:48:58;;;;;;;5.27;1.70;;;;;;;8.71;nan;102676.03;4911874;29;20459;-88
2023/01/16 00:51:28;;;;;;;5.73;1.90;;;;;;;8.59;nan;102675.25;4954884;29;20455;-88
2023/01/16 00:54:03;;;;;;;5.80;2.83;;;;;;;8.53;nan;102684.81;4922224;29;21018;-90
2023/01/16 00:56:31;;;;;;;7.97;3.27;;;;;;;8.47;nan;102696.25;4939496;29;20529;-89
2023/01/16 00:59:03;;;;;;;9.50;3.80;;;;;;;8.44;nan;102690.22;4922176;29;20482;-89
2023/01/16 01:01:33;;;;;;;15.13;7.63;;;;;;;8.40;nan;102688.75;4954749;28;20455;-89
2023/01/16 01:04:03;;;;;;;14.77;8.50;;;;;;;8.38;nan;102693.47;4911715;29;20455;-88
2023/01/16 01:06:32;;;;;;;13.50;4.10;;;;;;;8.34;nan;102679.22;4937971;28;20954;-89
2023/01/16 01:09:01;;;;;;;24.73;12.80;;;;;;;8.36;nan;102681.81;4939813;29;20447;-88
2023/01/16 01:11:30;;;;;;;20.60;10.90;;;;;;;8.19;nan;102665.03;4923731;29;20954;-88
2023/01/16 01:13:58;;;;;;;9.03;4.07;;;;;;;8.24;nan;102672.81;4932540;28;20457;-88
2023/01/16 01:16:28;;;;;;;17.53;8.90;;;;;;;8.16;nan;102662.56;4863342;29;20454;-88
2023/01/16 01:18:57;;;;;;;23.00;9.93;;;;;;;8.10;nan;102664.94;4816177;29;20575;-89
2023/01/16 01:21:26;;;;;;;11.13;4.40;;;;;;;8.13;nan;102660.09;4790016;29;20450;-89
2023/01/16 01:24:00;;;;;;;9.00;2.53;;;;;;;8.07;nan;102654.34;4814010;29;20450;-88
2023/01/16 01:26:29;;;;;;;8.47;2.30;;;;;;;8.04;nan;102643.72;4823148;29;20468;-88
2023/01/16 01:29:02;;;;;;;11.10;2.20;;;;;;;8.10;nan;102654.06;4822846;29;20472;-89
2023/01/16 01:31:31;;;;;;;10.67;3.70;;;;;;;8.06;nan;102648.03;4837466;29;20461;-89
2023/01/16 01:34:00;;;;;;;10.47;2.73;;;;;;;8.02;nan;102649.28;4815029;29;20451;-88
2023/01/16 01:36:31;;;;;;;12.30;2.90;;;;;;;7.98;nan;102639.63;4892128;28;20810;-88
2023/01/16 01:39:03;;;;;;;12.10;3.27;;;;;;;7.97;nan;102648.78;4907813;29;20487;-89
2023/01/16 01:41:31;;;;;;;10.73;3.50;;;;;;;7.96;nan;102647.06;4938533;29;20454;-89
2023/01/16 01:43:59;;;;;;;9.77;3.63;;;;;;;7.97;nan;102646.06;4915700;29;20453;-89
2023/01/16 01:46:43;;;;;;;9.33;3.27;;;;;;;8.01;nan;102644.81;4938539;29;20463;-88
2023/01/16 01:49:24;;;;;;;23.13;3.27;;;;;;;8.06;nan;102637.13;4938017;29;20526;-89
2023/01/16 01:52:00;;;;;;;9.00;2.40;;;;;;;8.14;nan;102640.06;4940804;28;20956;-89
2023/01/16 01:54:36;;;;;;;16.50;2.77;;;;;;;8.22;nan;102629.38;4923146;29;20505;-89
2023/01/16 01:57:12;;;;;;;10.43;2.73;;;;;;;8.32;nan;102632.19;4923150;29;20454;-89
2023/01/16 01:59:45;;;;;;;6.87;2.83;;;;;;;8.34;nan;102638.38;4922710;29;20489;-88
2023/01/16 02:02:19;;;;;;;9.30;2.87;;;;;;;8.39;nan;102629.81;4941696;28;20945;-89
2023/01/16 02:04:51;;;;;;;11.63;3.20;;;;;;;8.43;nan;102620.38;4912168;29;20447;-89
2023/01/16 02:07:20;;;;;;;10.80;2.90;;;;;;;8.46;nan;102620.09;4934615;29;20531;-89
2023/01/16 02:09:47;;;;;;;11.17;3.20;;;;;;;8.57;nan;102622.75;4929888;29;20482;-88
2023/01/16 02:12:17;;;;;;;10.47;2.70;;;;;;;8.60;nan;102614.31;4903733;29;20459;-89
2023/01/16 02:14:46;;;;;;;5.23;2.37;;;;;;;8.69;nan;102624.38;4914359;29;20459;-89
2023/01/16 02:20:14;;;;;;;8.20;1.87;;;;;;;8.77;nan;102620.97;4948373;29;20492;-88
2023/01/16 02:23:19;;;;;;;5.63;2.00;;;;;;;8.90;nan;102621.59;4936296;29;20458;-88
2023/01/16 02:26:11;;;;;;;7.40;1.80;;;;;;;8.94;nan;102623.94;4950060;29;20458;-88
2023/01/16 02:29:16;;;;;;;6.73;2.33;;;;;;;8.98;nan;102633.56;4957095;29;20463;-89
2023/01/16 02:35:54;;;;;;;9.77;1.93;;;;;;;9.07;nan;102622.81;4943754;28;20836;-89
2023/01/16 02:38:35;;;;;;;10.30;1.90;;;;;;;9.13;nan;102627.75;4862471;29;20453;-89
2023/01/16 02:41:41;;;;;;;11.33;1.47;;;;;;;9.18;nan;102620.00;4847626;29;20455;-88
2023/01/16 02:44:28;;;;;;;6.17;1.53;;;;;;;9.27;nan;102633.66;4892277;29;20430;-87
2023/01/16 02:47:07;;;;;;;6.63;1.37;;;;;;;9.37;nan;102633.72;4905397;29;20569;-88
2023/01/16 02:49:40;;;;;;;6.00;1.50;;;;;;;9.43;nan;102624.94;4905560;29;20487;-87
2023/01/16 02:52:40;;;;;;;9.23;2.00;;;;;;;9.51;nan;102629.72;4866122;29;20453;-88
2023/01/16 02:55:17;;;;;;;11.90;1.80;;;;;;;9.53;nan;102619.53;4860880;29;20615;-88
2023/01/16 02:57:46;;;;;;;10.73;1.77;;;;;;;9.54;nan;102616.66;4866203;29;20459;-88
2023/01/16 03:00:19;;;;;;;6.17;1.70;;;;;;;9.65;nan;102623.84;4865491;29;20482;-88
2023/01/16 03:02:50;;;;;;;5.77;1.10;;;;;;;9.68;nan;102613.50;4872135;29;20459;-89
2023/01/16 03:05:18;;;;;;;4.50;1.27;;;;;;;9.71;nan;102609.63;4875442;29;20839;-89
2023/01/16 03:08:09;;;;;;;14.00;2.50;;;;;;;9.74;nan;102612.06;4865003;29;20479;-89
2023/01/16 03:10:50;;;;;;;8.57;1.97;;;;;;;9.73;nan;102606.75;4861926;29;20888;-88
2023/01/16 03:13:56;;;;;;;11.03;3.20;;;;;;;9.69;nan;102615.22;4913788;29;20452;-88
2023/01/16 03:17:15;;;;;;;12.97;2.77;;;;;;;9.61;nan;102609.63;4937958;29;20455;-89
2023/01/16 03:20:11;;;;;;;10.53;1.90;;;;;;;9.46;nan;102589.19;4922054;29;20499;-89
2023/01/16 03:23:23;;;;;;;5.50;1.70;;;;;;;9.51;nan;102600.56;4930809;29;20970;-89
2023/01/16 03:25:57;;;;;;;9.47;1.33;;;;;;;9.45;nan;102617.47;4956458;29;21044;-88
2023/01/16 03:28:32;;;;;;;6.73;1.63;;;;;;;9.39;nan;102609.88;4955295;29;20949;-89
2023/01/16 03:31:06;;;;;;;11.23;1.70;;;;;;;9.36;nan;102596.50;4956885;29;20913;-89
2023/01/16 03:33:46;;;;;;;9.30;1.30;;;;;;;9.39;nan;102596.22;4935480;29;20825;-89
2023/01/16 03:36:27;;;;;;;9.30;1.27;;;;;;;9.39;nan;102585.31;4938211;29;20459;-89
2023/01/16 03:38:55;;;;;;;10.27;2.10;;;;;;;9.39;nan;102579.00;4922150;29;20463;-89
2023/01/16 03:41:24;;;;;;;7.17;1.30;;;;;;;9.40;nan;102580.72;4922222;29;20480;-89
2023/01/16 03:43:58;;;;;;;4.90;1.33;;;;;;;9.41;nan;102577.84;4944021;28;20459;-89
2023/01/16 03:46:33;;;;;;;12.17;1.83;;;;;;;9.40;nan;102581.59;4924479;29;20946;-88
2023/01/16 03:49:21;;;;;;;10.83;1.77;;;;;;;9.39;nan;102568.09;4955963;29;20457;-89
2023/01/16 03:51:51;;;;;;;8.43;1.47;;;;;;;9.43;nan;102573.09;4940588;29;20459;-88
2023/01/16 03:54:28;;;;;;;5.83;1.60;;;;;;;9.46;nan;102577.41;4942428;29;20503;-89
2023/01/16 03:57:03;;;;;;;3.03;1.03;;;;;;;9.41;nan;102564.22;4951308;29;20959;-89
2023/01/16 03:59:33;;;;;;;4.30;1.00;;;;;;;9.44;nan;102563.03;4939880;29;20470;-89
2023/01/16 04:02:41;;;;;;;6.97;1.63;;;;;;;9.49;nan;102563.47;4921249;29;20471;-89
2023/01/16 04:05:43;;;;;;;6.00;1.80;;;;;;;9.52;nan;102563.19;4954297;29;20587;-88
2023/01/16 04:08:16;;;;;;;9.83;2.20;;;;;;;9.49;nan;102547.97;4922725;29;20479;-88
2023/01/16 04:10:46;;;;;;;13.20;2.10;;;;;;;9.56;nan;102551.00;4930567;28;20456;-88
2023/01/16 04:13:50;;;;;;;8.30;2.10;;;;;;;9.57;nan;102544.53;4922906;29;20451;-89
2023/01/16 04:16:19;;;;;;;5.07;1.40;;;;;;;9.54;nan;102534.75;4955731;29;20443;-88
2023/01/16 04:18:49;;;;;;;8.77;1.83;;;;;;;9.56;nan;102534.63;4918922;29;20458;-89
2023/01/16 04:21:17;;;;;;;8.77;2.20;;;;;;;9.55;nan;102536.50;4921365;29;20495;-89
2023/01/16 04:23:47;;;;;;;8.50;1.77;;;;;;;9.54;nan;102531.16;4949828;29;20527;-89
2023/01/16 04:26:20;;;;;;;5.63;1.30;;;;;;;9.58;nan;102538.94;4920820;29;20459;-88
2023/01/16 04:28:56;;;;;;;9.37;1.77;;;;;;;9.56;nan;102531.91;4929075;29;20459;-89
2023/01/16 04:31:27;;;;;;;3.53;1.20;;;;;;;9.60;nan;102530.59;4924367;29;20501;-89
2023/01/16 04:34:02;;;;;;;9.00;1.10;;;;;;;9.66;nan;102539.06;4917833;29;20456;-89
2023/01/16 04:36:31;;;;;;;7.07;1.30;;;;;;;9.65;nan;102520.97;4905327;29;20456;-89
2023/01/16 04:39:07;;;;;;;7.40;1.17;;;;;;;9.68;nan;102520.69;4922222;29;20507;-89
2023/01/16 04:41:38;;;;;;;7.70;1.20;;;;;;;9.67;nan;102513.50;4935998;29;20463;-89
2023/01/16 04:44:10;;;;;;;4.90;1.50;;;;;;;9.78;nan;102517.09;4925534;29;20468;-88
2023/01/16 04:46:38;;;;;;;4.43;1.20;;;;;;;9.76;nan;102508.19;4939132;29;20455;-90
2023/01/16 04:49:17;;;;;;;4.63;1.17;;;;;;;9.81;nan;102514.06;4918295;29;20459;-89
2023/01/16 04:51:47;;;;;;;5.47;1.43;;;;;;;9.79;nan;102511.50;4920380;29;20464;-89
2023/01/16 04:54:17;;;;;;;7.93;1.80;;;;;;;9.79;nan;102500.56;4936424;29;20494;-89
2023/01/16 04:56:54;;;;;;;11.03;2.10;;;;;;;9.79;nan;102510.63;4905267;29;20455;-88
2023/01/16 04:59:23;;;;;;;6.23;1.77;;;;;;;9.75;nan;102490.94;4954219;29;20482;-89
2023/01/16 05:01:52;;;;;;;5.33;1.83;;;;;;;9.74;nan;102485.63;4937128;29;20439;-89
2023/01/16 05:04:21;;;;;;;10.70;1.90;;;;;;;9.74;nan;102481.03;4923638;29;20945;-89
2023/01/16 05:06:48;;;;;;;11.23;2.43;;;;;;;9.77;nan;102479.88;4927066;28;20825;-89
2023/01/16 05:09:16;;;;;;;6.07;1.30;;;;;;;9.80;nan;102476.84;4926699;28;20453;-89
2023/01/16 05:11:45;;;;;;;6.03;1.17;;;;;;;9.83;nan;102463.75;4923479;29;20513;-89
2023/01/16 05:14:15;;;;;;;13.00;2.70;;;;;;;10.02;nan;102473.75;4907865;29;20451;-89
2023/01/16 05:16:44;;;;;;;15.47;1.77;;;;;;;10.17;nan;102477.78;4925433;28;20458;-89
2023/01/16 05:19:20;;;;;;;7.03;1.23;;;;;;;10.37;nan;102464.94;4927335;28;20446;-89
2023/01/16 05:21:49;;;;;;;7.60;1.20;;;;;;;10.55;nan;102463.13;4926914;28;20463;-88
2023/01/16 05:24:30;;;;;;;9.10;1.10;;;;;;;10.71;nan;102443.31;4943176;29;20459;-88
2023/01/16 05:27:00;;;;;;;7.73;1.80;;;;;;;10.74;nan;102445.75;4920148;29;20534;-89
2023/01/16 05:29:29;;;;;;;12.10;4.43;;;;;;;10.80;nan;102442.38;4923367;29;20473;-88
2023/01/16 05:31:59;;;;;;;29.83;11.03;;;;;;;10.80;nan;102436.91;4928368;29;20965;-89
2023/01/16 05:34:28;;;;;;;30.43;17.20;;;;;;;10.77;nan;102437.25;4938511;29;20465;-89
2023/01/16 05:36:56;;;;;;;10.03;4.87;;;;;;;10.76;nan;102448.31;4949774;29;20455;-89
2023/01/16 05:39:24;;;;;;;13.43;3.03;;;;;;;10.67;nan;102439.16;4922873;29;20443;-88
2023/01/16 05:41:53;;;;;;;12.10;2.47;;;;;;;10.62;nan;102436.00;4941658;28;20521;-89
2023/01/16 05:44:23;;;;;;;7.87;3.10;;;;;;;10.56;nan;102439.38;4942233;28;20477;-89
2023/01/16 05:46:52;;;;;;;12.60;3.63;;;;;;;10.50;nan;102439.97;4926224;28;20452;-89
2023/01/16 05:49:29;;;;;;;8.20;2.80;;;;;;;10.53;nan;102453.34;4922816;29;20462;-89
2023/01/16 05:51:57;;;;;;;11.43;4.77;;;;;;;10.53;nan;102456.94;4938484;28;20451;-89
2023/01/16 05:54:27;;;;;;;10.43;3.50;;;;;;;10.50;nan;102450.91;4923385;29;20485;-89
2023/01/16 05:56:56;;;;;;;13.63;3.30;;;;;;;10.55;nan;102456.78;4948839;28;20449;-89
2023/01/16 05:59:24;;;;;;;14.90;3.03;;;;;;;10.53;nan;102458.81;4943275;28;20875;-89
2023/01/16 06:01:56;;;;;;;6.90;2.53;;;;;;;10.55;nan;102470.47;4931833;28;20510;-89
2023/01/16 06:04:31;;;;;;;8.73;2.00;;;;;;;10.54;nan;102455.94;4926503;29;20860;-88
2023/01/16 06:06:59;;;;;;;10.43;2.67;;;;;;;10.56;nan;102451.16;4922865;29;20478;-89
2023/01/16 06:09:26;;;;;;;9.70;3.43;;;;;;;10.55;nan;102448.59;4908081;29;20439;-89
2023/01/16 06:11:56;;;;;;;7.70;1.53;;;;;;;10.63;nan;102448.66;4913996;29;20451;-89
2023/01/16 06:14:26;;;;;;;9.87;1.77;;;;;;;10.78;nan;102446.28;4941876;29;21012;-90
2023/01/16 06:17:03;;;;;;;18.03;1.30;;;;;;;10.98;nan;102459.66;4922873;29;20959;-88
2023/01/16 06:19:32;;;;;;;9.63;1.60;;;;;;;11.12;nan;102457.44;4927196;29;20980;-89
2023/01/16 06:22:17;;;;;;;10.93;2.20;;;;;;;11.26;nan;102459.63;4941266;29;20479;-89
2023/01/16 06:24:46;;;;;;;12.93;2.10;;;;;;;11.34;nan;102462.44;4942508;29;21008;-89
2023/01/16 06:27:24;;;;;;;15.00;1.40;;;;;;;11.42;nan;102446.94;4917416;29;20452;-89
2023/01/16 06:29:52;;;;;;;9.97;1.80;;;;;;;11.45;nan;102436.69;4954039;29;20502;-89
2023/01/16 06:32:22;;;;;;;12.30;1.30;;;;;;;11.58;nan;102432.53;4925887;29;20568;-89
2023/01/16 06:34:52;;;;;;;5.50;1.20;;;;;;;11.63;nan;102438.38;4941611;29;20458;-89
2023/01/16 06:37:21;;;;;;;11.23;4.27;;;;;;;11.62;nan;102422.97;4923971;29;20458;-89
2023/01/16 06:39:50;;;;;;;24.57;7.83;;;;;;;11.71;nan;102427.50;4907165;29;21009;-88
2023/01/16 06:42:22;;;;;;;13.63;2.30;;;;;;;11.76;nan;102425.16;4949897;29;20482;-87
2023/01/16 06:44:54;;;;;;;15.23;1.93;;;;;;;11.75;nan;102428.88;4939621;29;20513;-88
2023/01/16 06:47:27;;;;;;;9.10;1.43;;;;;;;11.72;nan;102426.50;4925963;29;21122;-89
2023/01/16 06:50:05;;;;;;;15.80;1.80;;;;;;;11.81;nan;102427.44;4956833;29;21028;-89
2023/01/16 06:52:34;;;;;;;17.93;1.70;;;;;;;11.87;nan;102435.00;4947921;29;20456;-88
2023/01/16 06:55:03;;;;;;;17.13;2.00;;;;;;;11.85;nan;102433.44;4941481;28;20940;-89
2023/01/16 06:57:40;;;;;;;22.00;1.70;;;;;;;11.89;nan;102438.47;4926084;29;20446;-89
2023/01/16 07:00:16;;;;;;;15.33;1.53;;;;;;;11.90;nan;102439.31;4941637;29;20642;-88
2023/01/16 07:02:56;;;;;;;10.63;1.57;;;;;;;11.89;nan;102427.50;4915458;29;20514;-90
2023/01/16 07:05:24;;;;;;;19.53;1.73;;;;;;;11.92;nan;102429.91;4941470;29;20491;-88
2023/01/16 07:07:53;;;;;;;5.33;1.50;;;;;;;11.94;nan;102429.72;4910656;29;20463;-89
2023/01/16 07:10:23;;;;;;;17.30;1.67;;;;;;;11.96;nan;102430.44;4937494;29;20463;-89
2023/01/16 07:12:54;;;;;;;11.63;1.67;;;;;;;11.98;nan;102428.38;4922949;29;20460;-88
2023/01/16 07:24:08;;;;;;;20.17;2.93;;;;;;;12.04;nan;102416.78;4938490;29;20463;-89
2023/01/16 07:26:39;;;;;;;12.43;2.47;;;;;;;12.02;nan;102414.22;4937762;29;20817;-89
2023/01/16 07:29:08;;;;;;;7.97;1.80;;;;;;;12.07;nan;102421.94;4939155;29;20443;-89
2023/01/16 07:31:39;;;;;;;8.60;1.40;;;;;;;12.11;nan;102428.84;4922078;29;20440;-89
2023/01/16 07:34:08;;;;;;;9.10;1.60;;;;;;;12.14;nan;102433.97;4921438;29;20822;-88
2023/01/16 07:36:38;;;;;;;7.40;1.57;;;;;;;12.25;nan;102441.94;4911243;29;20506;-88
2023/01/16 07:39:06;;;;;;;4.67;1.07;;;;;;;12.23;nan;102433.00;4955851;29;20459;-89
2023/01/16 07:41:38;;;;;;;11.43;1.40;;;;;;;12.28;nan;102440.75;4922000;29;20479;-89
2023/01/16 07:44:32;;;;;;;6.90;1.60;;;;;;;12.30;nan;102444.19;4943222;29;20447;-88
2023/01/16 07:47:01;;;;;;;8.47;1.33;;;;;;;12.27;nan;102434.41;4956494;29;20528;-88
2023/01/16 07:49:30;;;;;;;4.13;1.17;;;;;;;12.31;nan;102441.28;4956759;29;20424;-89
2023/01/16 07:51:59;;;;;;;10.17;1.53;;;;;;;12.34;nan;102440.06;4925100;29;20462;-89
2023/01/16 07:54:28;;;;;;;10.43;1.33;;;;;;;12.34;nan;102449.16;4940710;29;20454;-89
2023/01/16 07:56:59;;;;;;;8.83;1.50;;;;;;;12.35;nan;102436.31;4882614;29;20509;-89
2023/01/16 07:59:27;;;;;;;8.30;1.57;;;;;;;12.35;nan;102444.53;4862714;29;20458;-92
2023/01/16 08:01:55;;;;;;;6.50;1.37;;;;;;;12.36;nan;102449.84;4865847;29;20486;-90
2023/01/16 08:04:37;;;;;;;6.70;1.07;;;;;;;12.41;nan;102466.69;4867512;29;20462;-90
2023/01/16 08:07:05;;;;;;;13.80;1.53;;;;;;;12.40;nan;102455.88;4871835;29;20472;-90
2023/01/16 08:10:05;;;;;;;7.47;2.00;;;;;;;12.48;nan;102463.28;4871546;29;20952;-90
2023/01/16 08:12:34;;;;;;;12.63;1.80;;;;;;;12.51;nan;102458.31;4901326;29;20449;-89
2023/01/16 08:15:04;;;;;;;10.13;1.30;;;;;;;12.53;nan;102460.88;4908149;28;20446;-89
2023/01/16 08:17:53;;;;;;;8.10;1.43;;;;;;;12.55;nan;102464.34;4946024;28;20449;-90
2023/01/16 08:20:24;;;;;;;11.57;1.53;;;;;;;12.57;nan;102465.88;4957169;28;20829;-90
2023/01/16 08:22:53;;;;;;;14.43;1.53;;;;;;;12.64;nan;102463.34;4909334;29;20926;-87
2023/01/16 08:25:22;;;;;;;10.50;1.60;;;;;;;12.62;nan;102457.19;4911870;28;21039;-88
2023/01/16 08:27:52;;;;;;;5.73;1.00;;;;;;;12.61;nan;102455.47;4927864;28;20815;-88
2023/01/16 08:30:24;;;;;;;11.63;2.07;;;;;;;12.69;nan;102471.97;4937936;28;20454;-90
2023/01/16 08:33:06;;;;;;;12.20;1.37;;;;;;;12.75;nan;102474.88;4947850;28;20453;-89
2023/01/16 08:35:33;;;;;;;14.27;1.63;;;;;;;12.77;nan;102475.56;4958217;28;20457;-89
2023/01/16 08:38:04;;;;;;;14.60;1.50;;;;;;;12.77;nan;102480.22;4917579;29;20470;-86
2023/01/16 08:40:34;;;;;;;10.03;1.70;;;;;;;12.79;nan;102478.16;4942813;28;20972;-88
2023/01/16 08:51:39;;;;;;;5.77;0.93;;;;;;;12.85;nan;102472.00;4959386;28;20462;-89
2023/01/16 08:54:22;;;;;;;11.77;1.10;;;;;;;12.92;nan;102478.53;4924250;28;20454;-90
2023/01/16 08:56:54;;;;;;;15.70;1.80;;;;;;;12.95;nan;102483.69;4942422;28;21353;-91
2023/01/16 08:59:50;;;;;;;5.47;1.13;;;;;;;13.05;nan;102489.91;4955823;28;20448;-92
2023/01/16 09:02:20;;;;;;;11.07;1.60;;;;;;;13.07;nan;102487.00;4958598;28;20482;-92
2023/01/16 09:04:59;;;;;;;7.07;1.40;;;;;;;13.14;nan;102485.28;4927323;28;20450;-92
2023/01/16 09:07:28;;;;;;;8.40;1.07;;;;;;;13.13;nan;102481.69;4928545;28;20951;-91
2023/01/16 09:10:24;;;;;;;6.23;1.40;;;;;;;13.23;nan;102498.06;4928541;28;20458;-93
2023/01/16 09:16:02;;;;;;;5.87;1.60;;;;;;;13.30;nan;102487.25;4951253;28;20577;-92
2023/01/16 09:18:36;;;;;;;9.47;1.53;;;;;;;13.40;nan;102496.19;4959213;28;20947;-92
2023/01/16 09:21:44;;;;;;;8.33;1.50;;;;;;;13.47;nan;102486.22;4928283;28;20848;-92
2023/01/16 09:24:17;;;;;;;10.70;1.40;;;;;;;13.55;nan;102480.75;4959309;28;20449;-92
2023/01/16 09:27:38;;;;;;;4.70;1.50;;;;;;;13.64;nan;102485.25;4915115;28;20813;-92
2023/01/16 09:30:24;;;;;;;5.30;0.93;;;;;;;13.73;nan;102483.34;4944080;29;20443;-92
2023/01/16 09:33:06;;;;;;;4.90;1.00;;;;;;;13.72;nan;102482.47;4951898;28;20452;-94
2023/01/16 09:35:43;;;;;;;7.13;1.23;;;;;;;13.71;nan;102480.75;4930265;28;20521;-87
2023/01/16 09:38:11;;;;;;;5.53;1.37;;;;;;;13.70;nan;102491.91;4942163;28;20450;-86
2023/01/16 09:40:39;;;;;;;10.03;1.30;;;;;;;13.69;nan;102491.06;4957674;28;20453;-86
2023/01/16 09:43:40;;;;;;;8.60;1.33;;;;;;;13.69;nan;102493.81;4957482;28;20961;-86
2023/01/16 09:46:12;;;;;;;12.70;1.30;;;;;;;13.72;nan;102498.97;4957818;28;20871;-88
2023/01/16 09:48:41;;;;;;;7.80;1.30;;;;;;;13.73;nan;102481.44;4957886;28;20949;-87
2023/01/16 09:51:41;;;;;;;10.10;1.33;;;;;;;13.76;nan;102477.50;4957967;28;20457;-87
2023/01/16 09:59:55;;;;;;;11.10;2.43;;;;;;;13.94;nan;102482.81;4959155;28;20952;-87
2023/01/16 10:02:33;;;;;;;6.37;1.20;;;;;;;14.08;nan;102476.59;4923566;28;20475;-87
2023/01/16 10:05:05;;;;;;;7.63;1.30;;;;;;;14.24;nan;102475.72;4925557;28;20450;-87
2023/01/16 10:07:45;;;;;;;8.73;1.80;;;;;;;14.47;nan;102477.56;4942243;28;21007;-88
2023/01/16 10:10:43;;;;;;;8.30;1.30;;;;;;;14.67;nan;102483.50;4968388;28;20462;-86
2023/01/16 10:13:21;;;;;;;6.57;1.30;;;;;;;14.78;nan;102496.03;4971407;28;20960;-86
2023/01/16 10:16:12;;;;;;;7.53;2.30;;;;;;;14.80;nan;102494.84;4974060;28;20508;-86
2023/01/16 10:19:16;;;;;;;17.13;3.70;;;;;;;14.80;nan;102489.31;4974252;28;20461;-86
2023/01/16 10:21:47;;;;;;;25.70;8.20;;;;;;;14.80;nan;102488.47;4928672;28;20481;-87
2023/01/16 10:24:37;;;;;;;12.10;5.00;;;;;;;14.69;nan;102486.94;4957289;28;20801;-87
2023/01/16 10:27:30;;;;;;;6.33;3.30;;;;;;;14.61;nan;102487.00;4967988;28;20832;-87
2023/01/16 10:30:06;;;;;;;12.40;4.60;;;;;;;14.59;nan;102479.94;4947168;28;20551;-87
2023/01/16 10:32:47;;;;;;;17.23;5.37;;;;;;;14.74;nan;102494.69;4948753;29;20980;-87
2023/01/16 10:35:28;;;;;;;11.33;3.10;;;;;;;14.80;nan;102483.81;4927380;29;20519;-88
2023/01/16 10:37:59;;;;;;;11.10;3.50;;;;;;;14.92;nan;102483.41;4966280;28;20452;-84
2023/01/16 10:40:30;;;;;;;9.40;1.87;;;;;;;15.03;nan;102483.84;4977424;28;20476;-83
2023/01/16 10:51:36;;;;;;;7.03;1.43;;;;;;;15.24;nan;102479.59;4960486;28;20852;-86
2023/01/16 10:54:05;;;;;;;15.03;1.30;;;;;;;15.33;nan;102487.66;4972020;28;20558;-85
2023/01/16 10:56:36;;;;;;;10.17;1.40;;;;;;;15.36;nan;102497.44;4939673;28;20465;-86
2023/01/16 10:59:04;;;;;;;13.57;1.27;;;;;;;15.32;nan;102479.56;4968818;28;20452;-85
2023/01/16 11:01:35;;;;;;;9.83;1.50;;;;;;;15.32;nan;102487.81;4987292;28;20819;-85
2023/01/16 11:04:05;;;;;;;8.87;1.83;;;;;;;15.32;nan;102474.06;4979262;28;21037;-85
2023/01/16 11:06:40;;;;;;;10.77;1.43;;;;;;;15.31;nan;102469.56;4943236;28;20461;-84
2023/01/16 11:09:14;;;;;;;8.17;1.50;;;;;;;15.35;nan;102476.44;4960668;28;20517;-85
2023/01/16 11:20:29;;;;;;;9.17;2.20;;;;;;;15.37;nan;102461.44;4851711;29;20450;-87
2023/01/16 11:23:03;;;;;;;9.10;1.37;;;;;;;15.35;nan;102448.91;4862525;29;20490;-86
2023/01/16 11:25:31;;;;;;;6.90;1.40;;;;;;;15.43;nan;102468.09;4864727;29;20465;-86
2023/01/16 11:28:02;;;;;;;7.87;1.00;;;;;;;15.48;nan;102468.41;4846996;29;20467;-86
2023/01/16 11:30:41;;;;;;;6.33;1.27;;;;;;;15.75;nan;102456.00;4941586;28;20449;-86
2023/01/16 11:33:18;;;;;;;5.10;1.00;;;;;;;15.98;nan;102455.94;4928617;28;20972;-86
2023/01/16 11:35:54;;;;;;;3.83;0.90;;;;;;;16.12;nan;102446.84;4975621;28;20457;-85
2023/01/16 11:38:24;;;;;;;6.20;0.90;;;;;;;16.29;nan;102442.84;4944172;28;20527;-85
2023/01/16 11:40:55;;;;;;;6.30;1.00;;;;;;;16.33;nan;102424.88;4943625;28;20446;-86
2023/01/16 11:46:36;;;;;;;6.53;0.70;;;;;;;16.31;nan;102429.72;4947026;28;20987;-86
2023/01/16 11:49:29;;;;;;;10.63;1.07;;;;;;;16.14;nan;102419.94;4940212;29;20815;-85
2023/01/16 11:52:03;;;;;;;10.20;1.57;;;;;;;16.13;nan;102405.28;4956638;28;20815;-85
2023/01/16 11:54:32;;;;;;;4.53;1.30;;;;;;;16.15;nan;102403.19;4939068;29;20451;-85
2023/01/16 11:57:25;;;;;;;8.13;1.20;;;;;;;16.29;nan;102398.72;4944546;28;20464;-85
2023/01/16 11:59:58;;;;;;;11.90;1.10;;;;;;;16.41;nan;102388.88;4976034;28;20453;-86
2023/01/16 12:03:03;;;;;;;3.63;0.63;;;;;;;16.49;nan;102394.31;4939371;29;21060;-85
2023/01/16 12:06:00;;;;;;;4.20;0.80;;;;;;;16.54;nan;102378.03;4939437;29;20466;-86
2023/01/16 12:09:00;;;;;;;3.40;0.60;;;;;;;16.57;nan;102369.34;4959858;28;20990;-86
2023/01/16 12:11:31;;;;;;;4.57;0.83;;;;;;;16.73;nan;102356.41;4951056;28;20832;-86
2023/01/16 12:17:00;;;;;;;8.57;1.30;;;;;;;16.80;nan;102347.13;4964578;28;20801;-86
2023/01/16 12:19:37;;;;;;;6.40;1.00;;;;;;;16.77;nan;102336.47;4925959;29;20463;-87
2023/01/16 12:22:07;;;;;;;8.03;1.20;;;;;;;16.83;nan;102330.19;4968566;28;20474;-87
2023/01/16 12:24:43;;;;;;;3.40;0.80;;;;;;;17.01;nan;102329.72;4958484;28;20450;-86
2023/01/16 12:27:29;;;;;;;7.57;0.73;;;;;;;17.05;nan;102333.81;4951461;29;20965;-86
2023/01/16 12:30:19;;;;;;;2.70;0.60;;;;;;;17.31;nan;102305.56;4956076;28;20509;-86
2023/01/16 12:32:52;;;;;;;3.87;1.03;;;;;;;17.46;nan;102309.09;4949647;28;20454;-88
2023/01/16 12:35:28;;;;;;;4.20;0.90;;;;;;;17.45;nan;102292.69;4937648;28;20820;-88
2023/01/16 12:38:01;;;;;;;2.43;0.47;;;;;;;17.50;nan;102293.81;4957727;28;20453;-86
2023/01/16 12:40:33;;;;;;;5.07;0.83;;;;;;;17.40;nan;102281.38;4954871;28;20563;-86
2023/01/16 12:43:20;;;;;;;2.60;0.50;;;;;;;17.22;nan;102279.13;4953259;28;20486;-88
2023/01/16 12:46:00;;;;;;;5.57;0.70;;;;;;;17.02;nan;102278.94;4957437;28;20454;-88
2023/01/16 12:49:15;;;;;;;6.30;0.90;;;;;;;16.91;nan;102282.25;4910033;28;20466;-88
2023/01/16 12:51:46;;;;;;;5.63;1.23;;;;;;;16.65;nan;102270.94;4942029;28;20817;-88
2023/01/16 12:54:32;;;;;;;4.73;0.80;;;;;;;16.41;nan;102259.19;4949021;28;20469;-87
2023/01/16 12:57:28;;;;;;;1.30;0.40;;;;;;;16.42;nan;102260.03;4940628;28;20458;-87
2023/01/16 13:00:01;;;;;;;3.47;0.70;;;;;;;16.45;nan;102235.66;4946406;28;20443;-87
2023/01/16 13:02:37;;;;;;;2.17;0.60;;;;;;;16.67;nan;102236.56;4950891;29;20548;-87
2023/01/16 13:05:28;;;;;;;3.97;0.57;;;;;;;16.85;nan;102230.56;4927192;29;20455;-86
2023/01/16 13:08:24;;;;;;;4.07;0.77;;;;;;;17.15;nan;102212.75;4930526;29;20479;-87
2023/01/16 13:14:16;;;;;;;10.27;0.90;;;;;;;17.84;nan;102190.66;4859285;29;20451;-86
2023/01/16 13:17:20;;;;;;;4.57;1.17;;;;;;;18.09;nan;102181.81;4845610;29;20463;-87
2023/01/16 13:19:58;;;;;;;6.93;0.97;;;;;;;17.98;nan;102190.69;4845347;29;20943;-87
2023/01/16 13:22:28;;;;;;;3.50;0.87;;;;;;;17.59;nan;102181.97;4844232;29;20487;-87